sensor_id;sensor_type;location;lat;lon;timestamp;P1;durP1;ratioP1;P2;durP2;ratioP2
32200;SDS011;18701;45.588;5.288;2022-12-07T00:01:08;47.90;;;23.25;;
32200;SDS011;18701;45.588;5.288;2022-12-07T00:03:37;46.72;;;22.40;;
32200;SDS011;18701;45.588;5.288;2022-12-07T00:06:05;46.85;;;21.55;;
32200;SDS011;18701;45.588;5.288;2022-12-07T00:08:33;45.72;;;21.88;;
32200;SDS011;18701;45.588;5.288;2022-12-07T00:11:03;43.97;;;21.02;;
32200;SDS011;18701;45.588;5.288;2022-12-07T00:13:31;43.17;;;20.92;;
32200;SDS011;18701;45.588;5.288;2022-12-07T00:16:05;40.33;;;19.85;;
32200;SDS011;18701;45.588;5.288;2022-12-07T00:18:31;41.35;;;19.42;;
32200;SDS011;18701;45.588;5.288;2022-12-07T00:21:00;39.83;;;20.15;;
32200;SDS011;18701;45.588;5.288;2022-12-07T00:23:26;39.28;;;19.50;;
32200;SDS011;18701;45.588;5.288;2022-12-07T00:25:51;40.17;;;19.08;;
32200;SDS011;18701;45.588;5.288;2022-12-07T00:28:17;40.40;;;18.38;;
32200;SDS011;18701;45.588;5.288;2022-12-07T00:30:43;37.75;;;17.80;;
32200;SDS011;18701;45.588;5.288;2022-12-07T00:33:08;38.13;;;17.85;;
32200;SDS011;18701;45.588;5.288;2022-12-07T00:35:34;39.10;;;18.65;;
32200;SDS011;18701;45.588;5.288;2022-12-07T00:37:59;41.08;;;19.52;;
32200;SDS011;18701;45.588;5.288;2022-12-07T00:40:25;40.35;;;19.38;;
32200;SDS011;18701;45.588;5.288;2022-12-07T00:42:50;43.03;;;20.67;;
32200;SDS011;18701;45.588;5.288;2022-12-07T00:45:16;41.22;;;20.02;;
32200;SDS011;18701;45.588;5.288;2022-12-07T00:47:42;39.17;;;18.60;;
32200;SDS011;18701;45.588;5.288;2022-12-07T00:50:08;43.60;;;19.90;;
32200;SDS011;18701;45.588;5.288;2022-12-07T00:52:33;43.40;;;19.85;;
32200;SDS011;18701;45.588;5.288;2022-12-07T00:54:59;39.85;;;19.52;;
32200;SDS011;18701;45.588;5.288;2022-12-07T00:57:25;40.63;;;17.60;;
32200;SDS011;18701;45.588;5.288;2022-12-07T00:59:50;39.30;;;19.77;;
32200;SDS011;18701;45.588;5.288;2022-12-07T01:02:20;42.33;;;20.13;;
32200;SDS011;18701;45.588;5.288;2022-12-07T01:04:46;35.75;;;18.25;;
32200;SDS011;18701;45.588;5.288;2022-12-07T01:07:11;39.25;;;19.08;;
32200;SDS011;18701;45.588;5.288;2022-12-07T01:09:37;38.58;;;16.98;;
32200;SDS011;18701;45.588;5.288;2022-12-07T01:12:03;37.83;;;18.63;;
32200;SDS011;18701;45.588;5.288;2022-12-07T01:14:28;38.42;;;18.15;;
32200;SDS011;18701;45.588;5.288;2022-12-07T01:16:54;42.83;;;18.95;;
32200;SDS011;18701;45.588;5.288;2022-12-07T01:19:20;38.22;;;18.67;;
32200;SDS011;18701;45.588;5.288;2022-12-07T01:21:45;41.78;;;19.25;;
32200;SDS011;18701;45.588;5.288;2022-12-07T01:24:11;43.10;;;19.73;;
32200;SDS011;18701;45.588;5.288;2022-12-07T01:26:36;43.97;;;20.65;;
32200;SDS011;18701;45.588;5.288;2022-12-07T01:29:02;43.08;;;20.00;;
32200;SDS011;18701;45.588;5.288;2022-12-07T01:31:28;44.58;;;20.08;;
32200;SDS011;18701;45.588;5.288;2022-12-07T01:33:55;43.45;;;20.27;;
32200;SDS011;18701;45.588;5.288;2022-12-07T01:36:23;46.78;;;21.35;;
32200;SDS011;18701;45.588;5.288;2022-12-07T01:38:57;41.33;;;20.52;;
32200;SDS011;18701;45.588;5.288;2022-12-07T01:41:25;44.90;;;19.17;;
32200;SDS011;18701;45.588;5.288;2022-12-07T01:46:45;45.05;;;20.63;;
32200;SDS011;18701;45.588;5.288;2022-12-07T01:49:16;44.75;;;19.88;;
32200;SDS011;18701;45.588;5.288;2022-12-07T01:51:48;43.88;;;19.13;;
32200;SDS011;18701;45.588;5.288;2022-12-07T01:54:16;44.55;;;19.80;;
32200;SDS011;18701;45.588;5.288;2022-12-07T01:56:48;38.50;;;19.50;;
32200;SDS011;18701;45.588;5.288;2022-12-07T01:59:17;44.35;;;18.60;;
32200;SDS011;18701;45.588;5.288;2022-12-07T02:01:45;44.08;;;19.58;;
32200;SDS011;18701;45.588;5.288;2022-12-07T02:04:11;39.17;;;18.92;;
32200;SDS011;18701;45.588;5.288;2022-12-07T02:06:37;42.90;;;20.10;;
32200;SDS011;18701;45.588;5.288;2022-12-07T02:09:03;43.97;;;19.83;;
32200;SDS011;18701;45.588;5.288;2022-12-07T02:11:29;38.20;;;17.60;;
32200;SDS011;18701;45.588;5.288;2022-12-07T02:13:56;39.28;;;18.70;;
32200;SDS011;18701;45.588;5.288;2022-12-07T02:30:17;42.20;;;18.20;;
32200;SDS011;18701;45.588;5.288;2022-12-07T02:32:54;46.35;;;18.83;;
32200;SDS011;18701;45.588;5.288;2022-12-07T02:40:27;41.88;;;19.05;;
32200;SDS011;18701;45.588;5.288;2022-12-07T02:42:58;39.47;;;18.80;;
32200;SDS011;18701;45.588;5.288;2022-12-07T02:45:47;41.58;;;18.08;;
32200;SDS011;18701;45.588;5.288;2022-12-07T02:48:16;46.65;;;19.80;;
32200;SDS011;18701;45.588;5.288;2022-12-07T02:50:44;47.13;;;18.83;;
32200;SDS011;18701;45.588;5.288;2022-12-07T02:56:04;45.65;;;17.75;;
32200;SDS011;18701;45.588;5.288;2022-12-07T02:58:58;43.83;;;18.65;;
32200;SDS011;18701;45.588;5.288;2022-12-07T03:02:11;40.05;;;18.52;;
32200;SDS011;18701;45.588;5.288;2022-12-07T03:07:21;43.97;;;17.45;;
32200;SDS011;18701;45.588;5.288;2022-12-07T03:12:29;40.15;;;17.00;;
32200;SDS011;18701;45.588;5.288;2022-12-07T03:15:21;36.28;;;16.13;;
32200;SDS011;18701;45.588;5.288;2022-12-07T03:17:54;43.03;;;17.52;;
32200;SDS011;18701;45.588;5.288;2022-12-07T03:20:22;35.22;;;17.08;;
32200;SDS011;18701;45.588;5.288;2022-12-07T03:22:52;36.63;;;16.52;;
32200;SDS011;18701;45.588;5.288;2022-12-07T03:25:19;34.38;;;16.55;;
32200;SDS011;18701;45.588;5.288;2022-12-07T03:30:22;33.13;;;16.13;;
32200;SDS011;18701;45.588;5.288;2022-12-07T03:33:15;31.13;;;14.65;;
32200;SDS011;18701;45.588;5.288;2022-12-07T03:36:21;30.80;;;14.63;;
32200;SDS011;18701;45.588;5.288;2022-12-07T03:38:48;36.38;;;15.05;;
32200;SDS011;18701;45.588;5.288;2022-12-07T03:41:19;33.42;;;15.38;;
32200;SDS011;18701;45.588;5.288;2022-12-07T03:43:49;32.20;;;15.65;;
32200;SDS011;18701;45.588;5.288;2022-12-07T03:48:54;34.53;;;15.70;;
32200;SDS011;18701;45.588;5.288;2022-12-07T03:51:28;29.00;;;14.73;;
32200;SDS011;18701;45.588;5.288;2022-12-07T03:54:10;30.40;;;14.95;;
32200;SDS011;18701;45.588;5.288;2022-12-07T03:56:59;32.30;;;14.60;;
32200;SDS011;18701;45.588;5.288;2022-12-07T03:59:26;33.83;;;15.50;;
32200;SDS011;18701;45.588;5.288;2022-12-07T04:01:53;33.00;;;14.77;;
32200;SDS011;18701;45.588;5.288;2022-12-07T04:04:21;31.92;;;15.63;;
32200;SDS011;18701;45.588;5.288;2022-12-07T04:06:48;30.98;;;14.73;;
32200;SDS011;18701;45.588;5.288;2022-12-07T04:09:14;33.40;;;14.95;;
32200;SDS011;18701;45.588;5.288;2022-12-07T04:11:40;34.13;;;15.10;;
32200;SDS011;18701;45.588;5.288;2022-12-07T04:14:05;32.28;;;15.73;;
32200;SDS011;18701;45.588;5.288;2022-12-07T04:16:43;34.85;;;16.52;;
32200;SDS011;18701;45.588;5.288;2022-12-07T04:19:14;33.55;;;15.20;;
32200;SDS011;18701;45.588;5.288;2022-12-07T04:21:41;34.92;;;15.13;;
32200;SDS011;18701;45.588;5.288;2022-12-07T04:24:07;33.10;;;16.17;;
32200;SDS011;18701;45.588;5.288;2022-12-07T04:26:32;35.17;;;16.17;;
32200;SDS011;18701;45.588;5.288;2022-12-07T04:28:58;35.42;;;16.23;;
32200;SDS011;18701;45.588;5.288;2022-12-07T04:31:23;36.92;;;16.75;;
32200;SDS011;18701;45.588;5.288;2022-12-07T04:33:49;32.20;;;14.43;;
32200;SDS011;18701;45.588;5.288;2022-12-07T04:36:15;32.17;;;15.07;;
32200;SDS011;18701;45.588;5.288;2022-12-07T04:38:40;37.05;;;16.98;;
32200;SDS011;18701;45.588;5.288;2022-12-07T04:41:06;41.78;;;18.17;;
32200;SDS011;18701;45.588;5.288;2022-12-07T04:43:33;38.67;;;16.80;;
32200;SDS011;18701;45.588;5.288;2022-12-07T04:45:59;38.17;;;17.45;;
32200;SDS011;18701;45.588;5.288;2022-12-07T04:48:25;37.38;;;17.08;;
32200;SDS011;18701;45.588;5.288;2022-12-07T04:50:51;42.78;;;18.05;;
32200;SDS011;18701;45.588;5.288;2022-12-07T04:53:17;39.33;;;16.35;;
32200;SDS011;18701;45.588;5.288;2022-12-07T04:55:43;40.58;;;17.98;;
32200;SDS011;18701;45.588;5.288;2022-12-07T04:58:10;41.25;;;18.30;;
32200;SDS011;18701;45.588;5.288;2022-12-07T05:00:37;41.95;;;18.15;;
32200;SDS011;18701;45.588;5.288;2022-12-07T05:03:02;39.53;;;17.60;;
32200;SDS011;18701;45.588;5.288;2022-12-07T05:05:28;38.20;;;16.27;;
32200;SDS011;18701;45.588;5.288;2022-12-07T05:07:53;40.63;;;17.95;;
32200;SDS011;18701;45.588;5.288;2022-12-07T05:10:19;43.53;;;17.58;;
32200;SDS011;18701;45.588;5.288;2022-12-07T05:12:45;40.63;;;16.83;;
32200;SDS011;18701;45.588;5.288;2022-12-07T05:15:11;40.53;;;16.40;;
32200;SDS011;18701;45.588;5.288;2022-12-07T05:17:37;39.53;;;16.58;;
32200;SDS011;18701;45.588;5.288;2022-12-07T05:20:03;40.53;;;17.20;;
32200;SDS011;18701;45.588;5.288;2022-12-07T05:22:29;39.95;;;16.80;;
32200;SDS011;18701;45.588;5.288;2022-12-07T05:24:55;42.03;;;17.48;;
32200;SDS011;18701;45.588;5.288;2022-12-07T05:27:21;41.72;;;17.13;;
32200;SDS011;18701;45.588;5.288;2022-12-07T05:29:47;46.58;;;18.67;;
32200;SDS011;18701;45.588;5.288;2022-12-07T05:32:14;44.10;;;18.40;;
32200;SDS011;18701;45.588;5.288;2022-12-07T05:34:39;46.25;;;17.20;;
32200;SDS011;18701;45.588;5.288;2022-12-07T05:37:05;43.80;;;18.15;;
32200;SDS011;18701;45.588;5.288;2022-12-07T05:39:31;42.90;;;17.63;;
32200;SDS011;18701;45.588;5.288;2022-12-07T05:41:56;44.35;;;17.25;;
32200;SDS011;18701;45.588;5.288;2022-12-07T05:44:37;42.00;;;17.30;;
32200;SDS011;18701;45.588;5.288;2022-12-07T05:47:03;42.58;;;18.08;;
32200;SDS011;18701;45.588;5.288;2022-12-07T05:49:29;46.70;;;18.20;;
32200;SDS011;18701;45.588;5.288;2022-12-07T05:51:54;46.80;;;18.05;;
32200;SDS011;18701;45.588;5.288;2022-12-07T05:54:20;43.53;;;17.05;;
32200;SDS011;18701;45.588;5.288;2022-12-07T05:56:46;41.17;;;17.13;;
32200;SDS011;18701;45.588;5.288;2022-12-07T05:59:11;45.90;;;19.00;;
32200;SDS011;18701;45.588;5.288;2022-12-07T06:02:22;43.10;;;18.73;;
32200;SDS011;18701;45.588;5.288;2022-12-07T06:04:44;42.00;;;17.33;;
32200;SDS011;18701;45.588;5.288;2022-12-07T06:07:12;58.08;;;19.10;;
32200;SDS011;18701;45.588;5.288;2022-12-07T06:09:39;48.50;;;19.67;;
32200;SDS011;18701;45.588;5.288;2022-12-07T06:12:05;50.90;;;18.30;;
32200;SDS011;18701;45.588;5.288;2022-12-07T06:14:50;47.08;;;19.10;;
32200;SDS011;18701;45.588;5.288;2022-12-07T06:17:16;52.55;;;19.15;;
32200;SDS011;18701;45.588;5.288;2022-12-07T06:19:41;45.95;;;18.92;;
32200;SDS011;18701;45.588;5.288;2022-12-07T06:22:08;45.67;;;19.23;;
32200;SDS011;18701;45.588;5.288;2022-12-07T06:24:35;52.92;;;19.33;;
32200;SDS011;18701;45.588;5.288;2022-12-07T06:27:01;47.40;;;18.13;;
32200;SDS011;18701;45.588;5.288;2022-12-07T06:29:27;50.63;;;19.75;;
32200;SDS011;18701;45.588;5.288;2022-12-07T06:31:52;49.90;;;18.88;;
32200;SDS011;18701;45.588;5.288;2022-12-07T06:34:19;55.08;;;19.33;;
32200;SDS011;18701;45.588;5.288;2022-12-07T06:36:47;52.70;;;20.05;;
32200;SDS011;18701;45.588;5.288;2022-12-07T06:39:17;57.03;;;19.35;;
32200;SDS011;18701;45.588;5.288;2022-12-07T06:41:43;54.60;;;20.77;;
32200;SDS011;18701;45.588;5.288;2022-12-07T06:44:09;51.35;;;19.00;;
32200;SDS011;18701;45.588;5.288;2022-12-07T06:46:35;55.92;;;19.17;;
32200;SDS011;18701;45.588;5.288;2022-12-07T06:49:01;58.38;;;20.55;;
32200;SDS011;18701;45.588;5.288;2022-12-07T06:51:27;54.20;;;19.13;;
32200;SDS011;18701;45.588;5.288;2022-12-07T06:53:52;52.75;;;19.85;;
32200;SDS011;18701;45.588;5.288;2022-12-07T06:56:18;51.20;;;19.95;;
32200;SDS011;18701;45.588;5.288;2022-12-07T06:58:44;59.67;;;20.08;;
32200;SDS011;18701;45.588;5.288;2022-12-07T07:01:11;56.83;;;19.27;;
32200;SDS011;18701;45.588;5.288;2022-12-07T07:03:40;55.40;;;20.35;;
32200;SDS011;18701;45.588;5.288;2022-12-07T07:06:06;49.92;;;18.67;;
32200;SDS011;18701;45.588;5.288;2022-12-07T07:08:33;50.30;;;17.80;;
32200;SDS011;18701;45.588;5.288;2022-12-07T07:11:00;53.45;;;19.25;;
32200;SDS011;18701;45.588;5.288;2022-12-07T07:13:26;49.33;;;18.65;;
32200;SDS011;18701;45.588;5.288;2022-12-07T07:15:52;47.85;;;17.27;;
32200;SDS011;18701;45.588;5.288;2022-12-07T07:18:18;50.03;;;18.25;;
32200;SDS011;18701;45.588;5.288;2022-12-07T07:20:44;52.42;;;20.00;;
32200;SDS011;18701;45.588;5.288;2022-12-07T07:23:10;52.35;;;18.80;;
32200;SDS011;18701;45.588;5.288;2022-12-07T07:25:35;45.83;;;17.08;;
32200;SDS011;18701;45.588;5.288;2022-12-07T07:28:01;45.70;;;16.92;;
32200;SDS011;18701;45.588;5.288;2022-12-07T07:30:27;44.20;;;16.42;;
32200;SDS011;18701;45.588;5.288;2022-12-07T07:32:59;44.60;;;16.88;;
32200;SDS011;18701;45.588;5.288;2022-12-07T07:35:26;39.10;;;15.35;;
32200;SDS011;18701;45.588;5.288;2022-12-07T07:37:53;40.03;;;15.63;;
32200;SDS011;18701;45.588;5.288;2022-12-07T07:40:19;40.58;;;16.17;;
32200;SDS011;18701;45.588;5.288;2022-12-07T07:42:46;44.47;;;15.98;;
32200;SDS011;18701;45.588;5.288;2022-12-07T07:45:13;42.10;;;15.88;;
32200;SDS011;18701;45.588;5.288;2022-12-07T07:47:39;43.28;;;16.00;;
32200;SDS011;18701;45.588;5.288;2022-12-07T07:50:05;47.95;;;16.67;;
32200;SDS011;18701;45.588;5.288;2022-12-07T07:52:31;46.85;;;16.20;;
32200;SDS011;18701;45.588;5.288;2022-12-07T07:54:57;43.28;;;15.95;;
32200;SDS011;18701;45.588;5.288;2022-12-07T07:57:22;41.75;;;15.02;;
32200;SDS011;18701;45.588;5.288;2022-12-07T07:59:48;43.45;;;16.25;;
32200;SDS011;18701;45.588;5.288;2022-12-07T08:02:17;44.40;;;16.30;;
32200;SDS011;18701;45.588;5.288;2022-12-07T08:04:44;52.22;;;17.02;;
32200;SDS011;18701;45.588;5.288;2022-12-07T08:07:10;45.35;;;17.25;;
32200;SDS011;18701;45.588;5.288;2022-12-07T08:09:37;43.30;;;15.68;;
32200;SDS011;18701;45.588;5.288;2022-12-07T08:12:02;45.78;;;15.68;;
32200;SDS011;18701;45.588;5.288;2022-12-07T08:14:28;47.50;;;17.25;;
32200;SDS011;18701;45.588;5.288;2022-12-07T08:16:54;36.17;;;14.50;;
32200;SDS011;18701;45.588;5.288;2022-12-07T08:19:20;36.25;;;13.98;;
32200;SDS011;18701;45.588;5.288;2022-12-07T08:21:46;34.30;;;12.73;;
32200;SDS011;18701;45.588;5.288;2022-12-07T08:24:11;28.98;;;12.20;;
32200;SDS011;18701;45.588;5.288;2022-12-07T08:26:37;34.28;;;12.25;;
32200;SDS011;18701;45.588;5.288;2022-12-07T08:29:03;30.50;;;12.52;;
32200;SDS011;18701;45.588;5.288;2022-12-07T08:31:28;29.38;;;12.55;;
32200;SDS011;18701;45.588;5.288;2022-12-07T08:33:54;37.67;;;13.38;;
32200;SDS011;18701;45.588;5.288;2022-12-07T08:36:20;30.30;;;12.60;;
32200;SDS011;18701;45.588;5.288;2022-12-07T08:38:47;34.42;;;13.45;;
32200;SDS011;18701;45.588;5.288;2022-12-07T08:41:13;30.25;;;13.10;;
32200;SDS011;18701;45.588;5.288;2022-12-07T08:43:39;28.85;;;13.07;;
32200;SDS011;18701;45.588;5.288;2022-12-07T08:48:52;31.08;;;13.13;;
32200;SDS011;18701;45.588;5.288;2022-12-07T08:51:46;29.17;;;11.90;;
32200;SDS011;18701;45.588;5.288;2022-12-07T08:54:13;29.42;;;12.52;;
32200;SDS011;18701;45.588;5.288;2022-12-07T08:56:41;28.50;;;12.35;;
32200;SDS011;18701;45.588;5.288;2022-12-07T08:59:08;30.92;;;13.38;;
32200;SDS011;18701;45.588;5.288;2022-12-07T09:01:33;26.92;;;12.85;;
32200;SDS011;18701;45.588;5.288;2022-12-07T09:03:59;30.55;;;13.15;;
32200;SDS011;18701;45.588;5.288;2022-12-07T09:06:25;32.53;;;12.88;;
32200;SDS011;18701;45.588;5.288;2022-12-07T09:08:51;35.22;;;13.43;;
32200;SDS011;18701;45.588;5.288;2022-12-07T09:11:21;36.33;;;12.10;;
32200;SDS011;18701;45.588;5.288;2022-12-07T09:13:47;27.45;;;11.32;;
32200;SDS011;18701;45.588;5.288;2022-12-07T09:16:12;28.67;;;12.27;;
32200;SDS011;18701;45.588;5.288;2022-12-07T09:18:38;24.33;;;10.65;;
32200;SDS011;18701;45.588;5.288;2022-12-07T09:21:04;25.02;;;11.80;;
32200;SDS011;18701;45.588;5.288;2022-12-07T09:23:30;24.67;;;12.05;;
32200;SDS011;18701;45.588;5.288;2022-12-07T09:25:59;24.58;;;11.77;;
32200;SDS011;18701;45.588;5.288;2022-12-07T09:28:25;30.25;;;12.02;;
32200;SDS011;18701;45.588;5.288;2022-12-07T09:30:51;23.38;;;11.20;;
32200;SDS011;18701;45.588;5.288;2022-12-07T09:33:17;23.98;;;11.32;;
32200;SDS011;18701;45.588;5.288;2022-12-07T09:35:46;32.42;;;12.38;;
32200;SDS011;18701;45.588;5.288;2022-12-07T09:38:12;28.85;;;12.93;;
32200;SDS011;18701;45.588;5.288;2022-12-07T09:40:38;28.52;;;13.57;;
32200;SDS011;18701;45.588;5.288;2022-12-07T09:43:04;26.48;;;11.57;;
32200;SDS011;18701;45.588;5.288;2022-12-07T09:45:33;22.30;;;12.20;;
32200;SDS011;18701;45.588;5.288;2022-12-07T09:48:02;28.45;;;13.68;;
32200;SDS011;18701;45.588;5.288;2022-12-07T09:50:28;26.40;;;12.50;;
32200;SDS011;18701;45.588;5.288;2022-12-07T09:52:56;30.20;;;13.02;;
32200;SDS011;18701;45.588;5.288;2022-12-07T09:55:40;36.20;;;14.18;;
32200;SDS011;18701;45.588;5.288;2022-12-07T09:58:10;27.35;;;12.93;;
32200;SDS011;18701;45.588;5.288;2022-12-07T10:00:44;30.75;;;13.60;;
32200;SDS011;18701;45.588;5.288;2022-12-07T10:03:10;35.72;;;13.50;;
32200;SDS011;18701;45.588;5.288;2022-12-07T10:05:41;30.23;;;14.30;;
32200;SDS011;18701;45.588;5.288;2022-12-07T10:08:10;31.60;;;13.80;;
32200;SDS011;18701;45.588;5.288;2022-12-07T10:10:37;28.38;;;13.32;;
32200;SDS011;18701;45.588;5.288;2022-12-07T10:13:14;30.95;;;13.55;;
32200;SDS011;18701;45.588;5.288;2022-12-07T10:21:00;30.08;;;12.85;;
32200;SDS011;18701;45.588;5.288;2022-12-07T10:23:39;27.92;;;13.32;;
32200;SDS011;18701;45.588;5.288;2022-12-07T10:29:13;28.98;;;14.00;;
32200;SDS011;18701;45.588;5.288;2022-12-07T10:31:42;23.48;;;12.45;;
32200;SDS011;18701;45.588;5.288;2022-12-07T10:34:23;26.55;;;12.85;;
32200;SDS011;18701;45.588;5.288;2022-12-07T10:36:49;22.92;;;12.15;;
32200;SDS011;18701;45.588;5.288;2022-12-07T10:39:19;26.95;;;13.32;;
32200;SDS011;18701;45.588;5.288;2022-12-07T10:44:27;23.33;;;11.68;;
32200;SDS011;18701;45.588;5.288;2022-12-07T10:57:47;21.75;;;10.77;;
32200;SDS011;18701;45.588;5.288;2022-12-07T11:00:39;21.92;;;11.35;;
32200;SDS011;18701;45.588;5.288;2022-12-07T11:06:10;22.92;;;11.27;;
32200;SDS011;18701;45.588;5.288;2022-12-07T11:11:38;21.75;;;11.82;;
32200;SDS011;18701;45.588;5.288;2022-12-07T11:17:02;20.40;;;11.82;;
32200;SDS011;18701;45.588;5.288;2022-12-07T11:22:23;23.58;;;12.50;;
32200;SDS011;18701;45.588;5.288;2022-12-07T11:28:41;19.40;;;10.82;;
32200;SDS011;18701;45.588;5.288;2022-12-07T11:34:42;26.02;;;12.68;;
32200;SDS011;18701;45.588;5.288;2022-12-07T11:37:25;20.25;;;10.88;;
32200;SDS011;18701;45.588;5.288;2022-12-07T11:39:59;22.40;;;12.27;;
32200;SDS011;18701;45.588;5.288;2022-12-07T11:42:37;26.77;;;12.90;;
32200;SDS011;18701;45.588;5.288;2022-12-07T11:45:13;26.42;;;14.00;;
32200;SDS011;18701;45.588;5.288;2022-12-07T11:52:56;24.50;;;13.55;;
32200;SDS011;18701;45.588;5.288;2022-12-07T12:00:46;32.83;;;14.65;;
32200;SDS011;18701;45.588;5.288;2022-12-07T12:03:15;23.52;;;12.82;;
32200;SDS011;18701;45.588;5.288;2022-12-07T12:05:55;26.65;;;13.63;;
32200;SDS011;18701;45.588;5.288;2022-12-07T12:08:23;24.52;;;13.73;;
32200;SDS011;18701;45.588;5.288;2022-12-07T12:13:47;24.73;;;13.52;;
32200;SDS011;18701;45.588;5.288;2022-12-07T12:19:19;23.95;;;13.45;;
32200;SDS011;18701;45.588;5.288;2022-12-07T12:21:57;25.90;;;14.57;;
32200;SDS011;18701;45.588;5.288;2022-12-07T12:24:38;25.17;;;14.18;;
32200;SDS011;18701;45.588;5.288;2022-12-07T12:27:06;21.75;;;12.32;;
32200;SDS011;18701;45.588;5.288;2022-12-07T12:29:39;24.92;;;12.82;;
32200;SDS011;18701;45.588;5.288;2022-12-07T12:32:20;25.83;;;13.43;;
32200;SDS011;18701;45.588;5.288;2022-12-07T12:42:50;29.05;;;13.63;;
32200;SDS011;18701;45.588;5.288;2022-12-07T12:45:19;24.63;;;13.95;;
32200;SDS011;18701;45.588;5.288;2022-12-07T12:50:19;25.98;;;13.68;;
32200;SDS011;18701;45.588;5.288;2022-12-07T12:52:53;23.90;;;14.48;;
32200;SDS011;18701;45.588;5.288;2022-12-07T12:58:50;23.85;;;12.98;;
32200;SDS011;18701;45.588;5.288;2022-12-07T13:01:42;24.02;;;13.45;;
32200;SDS011;18701;45.588;5.288;2022-12-07T13:04:16;22.00;;;12.43;;
32200;SDS011;18701;45.588;5.288;2022-12-07T13:06:49;22.60;;;12.50;;
32200;SDS011;18701;45.588;5.288;2022-12-07T13:09:19;23.95;;;12.88;;
32200;SDS011;18701;45.588;5.288;2022-12-07T13:11:48;24.95;;;12.30;;
32200;SDS011;18701;45.588;5.288;2022-12-07T13:17:04;25.63;;;12.75;;
32200;SDS011;18701;45.588;5.288;2022-12-07T13:25:34;23.98;;;13.23;;
32200;SDS011;18701;45.588;5.288;2022-12-07T13:27:48;25.60;;;13.80;;
32200;SDS011;18701;45.588;5.288;2022-12-07T13:30:21;20.88;;;11.88;;
32200;SDS011;18701;45.588;5.288;2022-12-07T13:32:57;22.63;;;11.65;;
32200;SDS011;18701;45.588;5.288;2022-12-07T13:35:35;23.20;;;12.90;;
32200;SDS011;18701;45.588;5.288;2022-12-07T13:38:13;26.17;;;14.68;;
32200;SDS011;18701;45.588;5.288;2022-12-07T13:41:16;23.10;;;13.02;;
32200;SDS011;18701;45.588;5.288;2022-12-07T13:43:48;24.80;;;10.65;;
32200;SDS011;18701;45.588;5.288;2022-12-07T13:46:30;21.27;;;12.45;;
32200;SDS011;18701;45.588;5.288;2022-12-07T13:49:15;23.98;;;11.52;;
32200;SDS011;18701;45.588;5.288;2022-12-07T13:51:43;20.73;;;11.75;;
32200;SDS011;18701;45.588;5.288;2022-12-07T13:54:09;21.48;;;11.60;;
32200;SDS011;18701;45.588;5.288;2022-12-07T13:56:36;21.00;;;11.57;;
32200;SDS011;18701;45.588;5.288;2022-12-07T13:59:05;20.38;;;11.77;;
32200;SDS011;18701;45.588;5.288;2022-12-07T14:01:37;20.23;;;11.75;;
32200;SDS011;18701;45.588;5.288;2022-12-07T14:07:01;21.83;;;11.95;;
32200;SDS011;18701;45.588;5.288;2022-12-07T14:10:00;27.67;;;12.95;;
32200;SDS011;18701;45.588;5.288;2022-12-07T14:12:28;23.73;;;13.38;;
32200;SDS011;18701;45.588;5.288;2022-12-07T14:14:55;21.00;;;12.07;;
32200;SDS011;18701;45.588;5.288;2022-12-07T14:17:23;22.95;;;12.05;;
32200;SDS011;18701;45.588;5.288;2022-12-07T14:22:31;22.23;;;11.75;;
32200;SDS011;18701;45.588;5.288;2022-12-07T14:25:13;21.85;;;12.07;;
32200;SDS011;18701;45.588;5.288;2022-12-07T14:27:57;19.65;;;12.07;;
32200;SDS011;18701;45.588;5.288;2022-12-07T14:30:25;25.88;;;11.80;;
32200;SDS011;18701;45.588;5.288;2022-12-07T14:32:59;23.15;;;11.55;;
32200;SDS011;18701;45.588;5.288;2022-12-07T14:35:30;20.40;;;11.57;;
32200;SDS011;18701;45.588;5.288;2022-12-07T14:37:56;19.45;;;11.35;;
32200;SDS011;18701;45.588;5.288;2022-12-07T14:40:26;21.83;;;12.07;;
32200;SDS011;18701;45.588;5.288;2022-12-07T14:42:54;23.70;;;11.52;;
32200;SDS011;18701;45.588;5.288;2022-12-07T14:45:24;34.65;;;13.23;;
32200;SDS011;18701;45.588;5.288;2022-12-07T14:47:50;18.13;;;11.30;;
32200;SDS011;18701;45.588;5.288;2022-12-07T14:50:17;25.17;;;11.40;;
32200;SDS011;18701;45.588;5.288;2022-12-07T14:52:53;18.52;;;11.13;;
32200;SDS011;18701;45.588;5.288;2022-12-07T14:55:25;22.92;;;11.30;;
32200;SDS011;18701;45.588;5.288;2022-12-07T14:57:52;24.80;;;11.48;;
32200;SDS011;18701;45.588;5.288;2022-12-07T15:00:18;20.83;;;10.48;;
32200;SDS011;18701;45.588;5.288;2022-12-07T15:02:46;18.08;;;10.60;;
32200;SDS011;18701;45.588;5.288;2022-12-07T15:05:12;20.20;;;11.32;;
32200;SDS011;18701;45.588;5.288;2022-12-07T15:07:38;20.13;;;11.40;;
32200;SDS011;18701;45.588;5.288;2022-12-07T15:10:05;17.95;;;10.95;;
32200;SDS011;18701;45.588;5.288;2022-12-07T15:12:37;21.10;;;12.73;;
32200;SDS011;18701;45.588;5.288;2022-12-07T15:15:03;20.02;;;11.32;;
32200;SDS011;18701;45.588;5.288;2022-12-07T15:17:29;19.08;;;11.40;;
32200;SDS011;18701;45.588;5.288;2022-12-07T15:19:55;19.42;;;11.48;;
32200;SDS011;18701;45.588;5.288;2022-12-07T15:22:20;20.15;;;11.30;;
32200;SDS011;18701;45.588;5.288;2022-12-07T15:24:46;21.10;;;12.20;;
32200;SDS011;18701;45.588;5.288;2022-12-07T15:27:12;35.28;;;12.43;;
32200;SDS011;18701;45.588;5.288;2022-12-07T15:29:37;21.00;;;12.05;;
32200;SDS011;18701;45.588;5.288;2022-12-07T15:32:03;20.77;;;11.88;;
32200;SDS011;18701;45.588;5.288;2022-12-07T15:34:28;22.05;;;11.30;;
32200;SDS011;18701;45.588;5.288;2022-12-07T15:36:55;23.55;;;12.57;;
32200;SDS011;18701;45.588;5.288;2022-12-07T15:39:21;22.75;;;12.32;;
32200;SDS011;18701;45.588;5.288;2022-12-07T15:41:47;25.58;;;12.60;;
32200;SDS011;18701;45.588;5.288;2022-12-07T15:44:13;22.25;;;12.18;;
32200;SDS011;18701;45.588;5.288;2022-12-07T15:46:58;22.23;;;11.68;;
32200;SDS011;18701;45.588;5.288;2022-12-07T15:49:24;26.00;;;12.55;;
32200;SDS011;18701;45.588;5.288;2022-12-07T15:51:50;28.00;;;13.05;;
32200;SDS011;18701;45.588;5.288;2022-12-07T15:54:18;22.92;;;12.40;;
32200;SDS011;18701;45.588;5.288;2022-12-07T15:56:45;23.75;;;12.60;;
32200;SDS011;18701;45.588;5.288;2022-12-07T15:59:11;27.30;;;13.77;;
32200;SDS011;18701;45.588;5.288;2022-12-07T16:01:36;28.00;;;13.57;;
32200;SDS011;18701;45.588;5.288;2022-12-07T16:04:02;29.83;;;13.85;;
32200;SDS011;18701;45.588;5.288;2022-12-07T16:06:28;23.95;;;13.57;;
32200;SDS011;18701;45.588;5.288;2022-12-07T16:08:53;22.40;;;13.05;;
32200;SDS011;18701;45.588;5.288;2022-12-07T16:11:19;27.40;;;15.07;;
32200;SDS011;18701;45.588;5.288;2022-12-07T16:13:45;25.63;;;13.98;;
32200;SDS011;18701;45.588;5.288;2022-12-07T16:16:12;22.92;;;13.77;;
32200;SDS011;18701;45.588;5.288;2022-12-07T16:18:39;21.15;;;12.45;;
32200;SDS011;18701;45.588;5.288;2022-12-07T16:21:06;23.15;;;12.95;;
32200;SDS011;18701;45.588;5.288;2022-12-07T16:23:32;27.55;;;13.23;;
32200;SDS011;18701;45.588;5.288;2022-12-07T16:26:11;24.80;;;13.02;;
32200;SDS011;18701;45.588;5.288;2022-12-07T16:28:39;25.70;;;13.18;;
32200;SDS011;18701;45.588;5.288;2022-12-07T16:31:06;26.10;;;12.43;;
32200;SDS011;18701;45.588;5.288;2022-12-07T16:33:39;21.88;;;11.98;;
32200;SDS011;18701;45.588;5.288;2022-12-07T16:36:07;22.35;;;12.07;;